首页
METAR-TAF:

METAR-TAF

机场 :

彭德-雅皮特國際機場

皮特尔角城, 瓜德罗普

纬度: 16-16N, 经度: 061-31W, 海拔: 11米

当前天气观测

该预报发布于13分钟前的22:00 UTC
风速5节,风向
温度 27°C
湿度 84%
气压 1010 hPa
能见度10公里或以上

METAR: TFFR 212200Z AUTO 10005KT 9999 FEW043/// ///TCU 27/24 Q1010 TEMPO 4000 SHRA

时间: 18:13 (22:13 UTC)

预报

该预报发布于5小时和13分钟前的17:00 UTC
预报有效从21日的 18点(UTC)到 22日的 18点(UTC)
风速8节,风向
能见度10公里或以上
散云层高于3000英尺
几率 30% :
短暂存在
从 21日的 18点(UTC)到 21日的 24点(UTC)
能見度: 4000
散云层高于1800英尺, 塔状积云.
阵雨
成为
从 21日的 22点(UTC)到 21日的 24点(UTC)
风速3节,风向多变
几率 30% :
短暂存在
从 22日的 08点(UTC)到 22日的 18点(UTC)
能見度: 4000
散云层高于1800英尺, 塔状积云.
阵雨
成为
从 22日的 12点(UTC)到 22日的 14点(UTC)
风速8节,风向

TAF: TFFR 211700Z 2118/2218 10008KT 9999 SCT030 PROB30 TEMPO 2118/2124 4000 SHRA SCT018TCU BECMG 2122/2124 VRB03KT PROB30 TEMPO 2208/2218 4000 SHRA SCT018TCU BECMG 2212/2214 10008KT

超过4000个机场的气象观测和天气预报(METAR&TAF报告)。

可查询的气象台以黄色和红色小点在地图上表示。

将鼠标移到小点上方,可查看气象台名称。

然后点击查看天气观测和预报。

如需切换地图:点击带黑十字的绿色按钮放大地图;点击带横线的绿色按钮缩小地图;或者点击绿色箭头查看邻近地区的地图。


METAR-TAF: